createdAt,value
2024-02-06T00:01:10.455Z,9.20
2024-02-06T00:03:37.580Z,9.20
2024-02-06T00:06:05.037Z,9.10
2024-02-06T00:08:32.243Z,9.10
2024-02-06T00:10:59.419Z,9.10
2024-02-06T00:13:28.055Z,9.10
2024-02-06T00:15:54.996Z,9.10
2024-02-06T00:18:21.931Z,9.10
2024-02-06T00:20:48.796Z,9.00
2024-02-06T00:23:15.708Z,9.00
2024-02-06T00:25:42.769Z,9.00
2024-02-06T00:28:12.308Z,8.90
2024-02-06T00:30:41.425Z,9.00
2024-02-06T00:33:08.669Z,9.00
2024-02-06T00:35:35.742Z,8.90
2024-02-06T00:38:02.938Z,8.90
2024-02-06T00:40:30.358Z,9.00
2024-02-06T00:42:57.633Z,9.00
2024-02-06T00:45:24.794Z,8.90
2024-02-06T00:47:53.505Z,8.90
2024-02-06T00:50:22.554Z,8.90
2024-02-06T00:52:49.591Z,8.80
2024-02-06T00:55:17.076Z,8.80
2024-02-06T00:57:44.060Z,8.60
2024-02-06T01:00:12.164Z,8.70
2024-02-06T01:02:39.050Z,8.70
2024-02-06T01:05:08.079Z,8.70
2024-02-06T01:07:35.138Z,8.70
2024-02-06T01:10:02.845Z,8.80
2024-02-06T01:12:29.660Z,8.80
2024-02-06T01:14:56.493Z,8.80
2024-02-06T01:17:23.289Z,8.90
2024-02-06T01:19:50.148Z,8.90
2024-02-06T01:22:18.592Z,8.80
2024-02-06T01:24:45.723Z,8.90
2024-02-06T01:27:12.551Z,8.90
2024-02-06T01:29:39.392Z,8.80
2024-02-06T01:32:06.784Z,8.80
2024-02-06T01:34:33.815Z,8.90
2024-02-06T01:37:00.847Z,8.90
2024-02-06T01:39:29.048Z,8.90
2024-02-06T01:41:55.888Z,9.00
2024-02-06T01:44:22.727Z,9.00
2024-02-06T01:46:50.311Z,9.00
2024-02-06T01:49:17.376Z,8.90
2024-02-06T01:51:46.937Z,9.00
2024-02-06T01:54:14.053Z,9.10
2024-02-06T01:56:42.940Z,9.00
2024-02-06T01:59:10.082Z,8.90
2024-02-06T02:01:37.218Z,8.90
2024-02-06T02:04:04.650Z,9.00
2024-02-06T02:06:31.918Z,9.00
2024-02-06T02:08:59.309Z,9.00
2024-02-06T02:11:26.282Z,8.90
2024-02-06T02:13:54.729Z,8.90
2024-02-06T02:16:21.768Z,8.90
2024-02-06T02:18:48.782Z,8.90
2024-02-06T02:21:17.041Z,8.90
2024-02-06T02:23:45.632Z,9.00
2024-02-06T02:26:14.104Z,9.10
2024-02-06T02:28:42.636Z,9.10
2024-02-06T02:31:10.810Z,9.10
2024-02-06T02:33:38.127Z,9.10
2024-02-06T02:36:05.483Z,9.20
2024-02-06T02:38:33.747Z,9.20
2024-02-06T02:41:00.596Z,9.10
2024-02-06T02:43:27.496Z,9.00
2024-02-06T02:45:54.401Z,9.00
2024-02-06T02:48:21.363Z,8.90
2024-02-06T02:50:48.333Z,8.70
2024-02-06T02:53:15.184Z,8.50
2024-02-06T02:55:43.508Z,8.30
2024-02-06T02:58:10.569Z,8.10
2024-02-06T03:00:37.486Z,8.00
2024-02-06T03:03:04.808Z,7.80
2024-02-06T03:05:31.783Z,7.70
2024-02-06T03:07:58.615Z,7.60
2024-02-06T03:10:25.478Z,7.60
2024-02-06T03:12:53.748Z,7.70
2024-02-06T03:15:20.643Z,7.80
2024-02-06T03:17:47.460Z,7.90
2024-02-06T03:20:14.643Z,8.00
2024-02-06T03:22:41.548Z,8.20
2024-02-06T03:25:09.073Z,8.20
2024-02-06T03:27:35.975Z,8.30
2024-02-06T03:30:04.740Z,8.30
2024-02-06T03:32:31.600Z,8.40
2024-02-06T03:34:58.583Z,8.40
2024-02-06T03:37:25.504Z,8.30
2024-02-06T03:39:52.406Z,8.20
2024-02-06T03:42:19.286Z,8.10
2024-02-06T03:44:46.103Z,8.00
2024-02-06T03:47:14.326Z,7.80
2024-02-06T03:49:41.207Z,7.70
2024-02-06T03:52:08.094Z,7.70
2024-02-06T03:54:34.957Z,7.90
2024-02-06T03:57:01.791Z,7.90
2024-02-06T03:59:28.636Z,8.10
2024-02-06T04:01:55.585Z,8.30
2024-02-06T04:04:23.855Z,8.50
2024-02-06T04:06:50.849Z,8.80
2024-02-06T04:09:17.826Z,9.10
2024-02-06T04:11:44.791Z,9.20
2024-02-06T04:14:11.683Z,9.30
2024-02-06T04:16:38.674Z,9.50
2024-02-06T04:19:05.700Z,9.70
2024-02-06T04:21:34.290Z,9.90
2024-02-06T04:24:01.168Z,9.90
2024-02-06T04:26:27.977Z,10.10
2024-02-06T04:28:54.852Z,10.40
2024-02-06T04:31:21.721Z,10.50
2024-02-06T04:33:48.657Z,10.30
2024-02-06T04:36:15.647Z,10.40
2024-02-06T04:38:44.117Z,10.40
2024-02-06T04:41:11.063Z,10.40
2024-02-06T04:43:38.026Z,10.40
2024-02-06T04:46:05.371Z,10.50
2024-02-06T04:48:34.798Z,10.50
2024-02-06T04:51:01.834Z,10.50
2024-02-06T04:53:28.703Z,10.60
2024-02-06T04:55:56.928Z,10.60
2024-02-06T04:58:23.842Z,10.50
2024-02-06T05:00:50.881Z,10.50
2024-02-06T05:03:17.791Z,10.50
2024-02-06T05:05:44.697Z,10.50
2024-02-06T05:08:11.571Z,10.40
2024-02-06T05:10:38.719Z,10.30
2024-02-06T05:13:07.062Z,10.20
2024-02-06T05:15:34.411Z,10.20
2024-02-06T05:18:01.374Z,10.20
2024-02-06T05:20:28.465Z,10.10
2024-02-06T05:22:55.381Z,10.20
2024-02-06T05:25:24.676Z,10.30
2024-02-06T05:27:52.141Z,10.30
2024-02-06T05:30:20.504Z,10.30
2024-02-06T05:32:47.366Z,10.30
2024-02-06T05:35:14.318Z,10.20
2024-02-06T05:37:41.363Z,10.10
2024-02-06T05:40:09.060Z,10.20
2024-02-06T05:42:35.936Z,10.30
2024-02-06T05:45:02.899Z,10.20
2024-02-06T05:47:31.116Z,10.20
2024-02-06T05:49:58.106Z,10.20
2024-02-06T05:52:25.088Z,10.10
2024-02-06T05:54:52.077Z,9.90
2024-02-06T05:57:19.064Z,9.80
2024-02-06T05:59:45.933Z,9.70
2024-02-06T06:02:12.935Z,9.70
2024-02-06T06:04:41.497Z,9.70
2024-02-06T06:07:08.528Z,9.60
2024-02-06T06:09:35.467Z,9.50
2024-02-06T06:12:02.379Z,9.60
2024-02-06T06:14:29.247Z,9.50
2024-02-06T06:16:56.200Z,9.40
2024-02-06T06:19:23.211Z,9.40
2024-02-06T06:21:51.521Z,9.50
2024-02-06T06:24:18.608Z,9.50
2024-02-06T06:26:45.530Z,9.50
2024-02-06T06:29:12.416Z,9.50
2024-02-06T06:31:39.312Z,9.50
2024-02-06T06:34:06.304Z,9.40
2024-02-06T06:36:33.253Z,9.30
2024-02-06T06:39:01.530Z,9.20
2024-02-06T06:41:28.592Z,9.20
2024-02-06T06:43:55.514Z,9.20
2024-02-06T06:46:22.757Z,9.10
2024-02-06T06:48:49.722Z,9.20
2024-02-06T06:51:16.936Z,9.10
2024-02-06T06:53:43.976Z,8.90
2024-02-06T06:56:19.347Z,8.80
2024-02-06T06:58:47.291Z,8.70
2024-02-06T07:01:14.717Z,8.60
2024-02-06T07:03:42.349Z,8.60
2024-02-06T07:06:09.638Z,8.50
2024-02-06T07:08:36.824Z,8.50
2024-02-06T07:11:04.093Z,8.40
2024-02-06T07:13:33.061Z,8.30
2024-02-06T07:16:00.290Z,8.20
2024-02-06T07:18:27.655Z,8.00
2024-02-06T07:20:54.722Z,7.80
2024-02-06T07:23:21.903Z,7.70
2024-02-06T07:25:49.263Z,7.50
2024-02-06T07:28:16.330Z,7.40
2024-02-06T07:30:45.120Z,7.20
2024-02-06T07:33:12.565Z,7.00
2024-02-06T07:35:40.693Z,6.90
2024-02-06T07:38:09.029Z,6.70
2024-02-06T07:40:36.686Z,6.50
2024-02-06T07:43:04.197Z,6.40
2024-02-06T07:45:31.503Z,6.30
2024-02-06T07:48:00.255Z,6.20
2024-02-06T07:50:27.503Z,6.10
2024-02-06T07:52:54.925Z,6.10
2024-02-06T07:55:22.073Z,6.00
2024-02-06T07:57:49.111Z,6.00
2024-02-06T08:00:17.455Z,5.90
2024-02-06T08:02:44.700Z,5.90
2024-02-06T08:05:13.270Z,5.90
2024-02-06T08:07:40.686Z,5.90
2024-02-06T08:10:09.338Z,5.80
2024-02-06T08:12:36.608Z,5.90
2024-02-06T08:15:04.127Z,5.80
2024-02-06T08:17:32.221Z,5.80
2024-02-06T08:19:59.298Z,5.80
2024-02-06T08:22:28.019Z,5.80
2024-02-06T08:24:55.377Z,5.80
2024-02-06T08:27:22.495Z,5.80
2024-02-06T08:29:49.700Z,5.70
2024-02-06T08:32:17.442Z,5.70
2024-02-06T08:34:44.593Z,5.70
2024-02-06T08:37:12.067Z,5.70
2024-02-06T08:39:40.869Z,5.80
2024-02-06T08:42:08.298Z,5.80
2024-02-06T08:44:36.024Z,5.80
2024-02-06T08:47:05.508Z,5.90
2024-02-06T08:49:32.567Z,6.00
2024-02-06T08:51:59.894Z,6.00
2024-02-06T08:54:27.302Z,6.10
2024-02-06T08:56:56.109Z,6.20
2024-02-06T08:59:23.018Z,6.20
2024-02-06T09:01:50.425Z,6.20
2024-02-06T09:04:18.613Z,6.30
2024-02-06T09:06:45.671Z,6.40
2024-02-06T09:09:12.897Z,6.50
2024-02-06T09:11:40.089Z,6.50
2024-02-06T09:14:09.043Z,6.50
2024-02-06T09:16:36.312Z,6.50
2024-02-06T09:19:05.701Z,6.50
2024-02-06T09:21:32.789Z,6.40
2024-02-06T09:24:00.225Z,6.30
2024-02-06T09:26:27.321Z,6.40
2024-02-06T09:28:54.624Z,6.30
2024-02-06T09:31:24.463Z,6.40
2024-02-06T09:33:52.197Z,6.40
2024-02-06T09:36:19.779Z,6.50
2024-02-06T09:38:47.825Z,6.50
2024-02-06T09:41:16.490Z,6.60
2024-02-06T09:43:44.669Z,6.60
2024-02-06T09:46:13.473Z,6.70
2024-02-06T09:48:43.700Z,6.70
2024-02-06T09:51:12.071Z,6.80
2024-02-06T09:53:39.407Z,6.90
2024-02-06T09:56:08.178Z,7.10
2024-02-06T09:58:36.191Z,7.20
2024-02-06T10:01:05.313Z,7.40
2024-02-06T10:03:34.031Z,7.50
2024-02-06T10:06:05.199Z,7.60
2024-02-06T10:08:32.541Z,7.70
2024-02-06T10:11:01.781Z,7.70
2024-02-06T10:13:30.098Z,7.70
2024-02-06T10:15:57.375Z,7.80
2024-02-06T10:18:24.409Z,7.80
2024-02-06T10:20:51.618Z,7.90
2024-02-06T10:23:20.975Z,7.90
2024-02-06T10:25:49.236Z,8.00
2024-02-06T10:28:21.543Z,8.00
2024-02-06T10:30:49.837Z,8.10
2024-02-06T10:33:18.063Z,8.20
2024-02-06T10:35:46.175Z,8.30
2024-02-06T10:38:13.824Z,8.50
2024-02-06T10:40:45.005Z,8.50
2024-02-06T10:43:42.889Z,8.60
2024-02-06T10:46:02.006Z,8.50
2024-02-06T10:48:30.150Z,8.40
2024-02-06T10:50:58.562Z,8.40
2024-02-06T10:53:25.947Z,8.30
2024-02-06T10:55:59.607Z,8.30
2024-02-06T10:58:31.273Z,8.30
2024-02-06T11:00:59.237Z,8.40
2024-02-06T11:03:28.666Z,8.40
2024-02-06T11:05:57.578Z,8.40
2024-02-06T11:08:28.624Z,8.30
2024-02-06T11:11:02.071Z,8.20
2024-02-06T11:13:32.598Z,8.20
2024-02-06T11:16:03.414Z,8.30
2024-02-06T11:18:34.484Z,8.40
2024-02-06T11:21:05.526Z,8.40
2024-02-06T11:23:33.786Z,8.30
2024-02-06T11:26:03.019Z,8.20
2024-02-06T11:28:30.609Z,8.20
2024-02-06T11:30:58.989Z,8.30
2024-02-06T11:33:34.002Z,8.30
2024-02-06T11:36:11.036Z,8.30
2024-02-06T11:38:38.113Z,8.40
2024-02-06T11:41:15.857Z,8.50
2024-02-06T11:43:44.192Z,8.60
2024-02-06T11:46:11.517Z,8.60
2024-02-06T11:48:41.541Z,8.70
2024-02-06T11:51:08.668Z,8.90
2024-02-06T11:53:35.592Z,8.90
2024-02-06T11:56:02.914Z,8.90
2024-02-06T11:58:31.962Z,9.00
2024-02-06T12:00:58.964Z,8.90
2024-02-06T12:03:25.975Z,8.90
2024-02-06T12:05:53.750Z,8.90
2024-02-06T12:08:22.693Z,8.90
2024-02-06T12:10:50.848Z,8.90
2024-02-06T12:13:19.387Z,9.00
2024-02-06T12:15:48.078Z,9.00
2024-02-06T12:18:16.261Z,9.20
2024-02-06T12:20:43.940Z,9.20
2024-02-06T12:23:14.138Z,9.20
2024-02-06T12:25:41.963Z,9.20
2024-02-06T12:28:09.985Z,9.20
2024-02-06T12:30:37.191Z,9.20
2024-02-06T12:33:06.383Z,9.20
2024-02-06T12:35:34.643Z,9.30
2024-02-06T12:38:06.175Z,9.30
2024-02-06T12:40:36.469Z,9.40
2024-02-06T12:43:04.508Z,9.40
2024-02-06T12:45:34.134Z,9.50
2024-02-06T12:48:02.282Z,9.50
2024-02-06T12:50:31.331Z,9.60
2024-02-06T12:52:59.042Z,9.60
2024-02-06T12:55:27.647Z,9.70
2024-02-06T12:57:55.414Z,9.80
2024-02-06T13:00:22.450Z,10.00
2024-02-06T13:03:00.609Z,10.00
2024-02-06T13:05:31.947Z,10.20
2024-02-06T13:08:10.515Z,10.50
2024-02-06T13:10:39.738Z,11.00
2024-02-06T13:13:07.899Z,11.60
2024-02-06T13:15:35.868Z,12.20
2024-02-06T13:18:04.662Z,12.50
2024-02-06T13:20:33.656Z,12.50
2024-02-06T13:23:08.857Z,12.80
2024-02-06T13:25:36.131Z,13.00
2024-02-06T13:28:03.106Z,13.20
2024-02-06T13:30:32.836Z,13.50
2024-02-06T13:33:03.253Z,13.80
2024-02-06T13:35:30.331Z,14.00
2024-02-06T13:37:59.159Z,14.20
2024-02-06T13:40:26.425Z,14.50
2024-02-06T13:42:54.039Z,14.70
2024-02-06T13:45:21.320Z,15.00
2024-02-06T13:47:48.497Z,15.10
2024-02-06T13:50:15.801Z,15.20
2024-02-06T13:52:43.035Z,15.80
2024-02-06T13:55:12.818Z,16.40
2024-02-06T13:57:40.752Z,16.50
2024-02-06T14:00:09.057Z,16.50
2024-02-06T14:02:36.471Z,16.20
2024-02-06T14:05:04.300Z,15.70
2024-02-06T14:07:31.305Z,15.80
2024-02-06T14:09:58.512Z,15.90
2024-02-06T14:12:32.587Z,15.60
2024-02-06T14:15:08.165Z,15.50
2024-02-06T14:17:35.118Z,15.60
2024-02-06T14:20:02.783Z,15.80
2024-02-06T14:22:30.413Z,16.10
2024-02-06T14:24:57.503Z,16.30
2024-02-06T14:27:26.130Z,16.10
2024-02-06T14:29:53.101Z,16.00
2024-02-06T14:32:20.057Z,15.60
2024-02-06T14:34:47.336Z,15.40
2024-02-06T14:37:14.560Z,15.60
2024-02-06T14:39:41.501Z,15.80
2024-02-06T14:42:10.221Z,15.90
2024-02-06T14:44:47.282Z,16.00
2024-02-06T14:47:18.564Z,16.40
2024-02-06T14:49:45.566Z,16.50
2024-02-06T14:52:12.867Z,16.20
2024-02-06T14:54:40.049Z,15.90
2024-02-06T14:57:07.033Z,15.80
2024-02-06T14:59:34.026Z,15.90
2024-02-06T15:02:02.672Z,15.90
2024-02-06T15:04:30.262Z,16.10
2024-02-06T15:06:57.856Z,16.60
2024-02-06T15:09:25.068Z,16.70
2024-02-06T15:11:52.032Z,16.50
2024-02-06T15:14:19.012Z,16.10
2024-02-06T15:16:46.481Z,15.70
2024-02-06T15:19:15.095Z,15.50
2024-02-06T15:21:42.212Z,15.30
2024-02-06T15:24:09.292Z,15.00
2024-02-06T15:26:36.380Z,14.60
2024-02-06T15:29:03.388Z,14.40
2024-02-06T15:31:31.270Z,14.30
2024-02-06T15:33:58.278Z,14.20
2024-02-06T15:36:27.139Z,14.10
2024-02-06T15:38:54.367Z,14.20
2024-02-06T15:41:21.440Z,14.00
2024-02-06T15:43:48.765Z,13.90
2024-02-06T15:46:15.781Z,13.70
2024-02-06T15:48:45.230Z,13.20
2024-02-06T15:51:12.558Z,12.80
2024-02-06T15:53:41.500Z,12.60
2024-02-06T15:56:09.269Z,12.70
2024-02-06T15:58:37.919Z,12.80
2024-02-06T16:01:06.488Z,12.50
2024-02-06T16:03:33.499Z,12.20
2024-02-06T16:06:00.789Z,11.90
2024-02-06T16:08:28.047Z,11.50
2024-02-06T16:10:57.445Z,11.10
2024-02-06T16:13:24.749Z,10.60
2024-02-06T16:15:51.861Z,10.20
2024-02-06T16:18:19.991Z,9.80
2024-02-06T16:20:47.206Z,9.50
2024-02-06T16:23:14.779Z,9.20
2024-02-06T16:25:42.017Z,8.90
2024-02-06T16:28:10.607Z,8.70
2024-02-06T16:30:37.595Z,8.60
2024-02-06T16:33:04.960Z,8.40
2024-02-06T16:35:32.112Z,8.30
2024-02-06T16:37:59.491Z,8.20
2024-02-06T16:40:26.567Z,8.10
2024-02-06T16:42:56.085Z,8.00
2024-02-06T16:45:24.765Z,8.00
2024-02-06T16:47:52.225Z,7.90
2024-02-06T16:50:19.438Z,7.70
2024-02-06T16:52:47.322Z,7.60
2024-02-06T16:55:14.899Z,7.60
2024-02-06T16:57:41.997Z,7.60
2024-02-06T17:00:10.462Z,7.60
2024-02-06T17:02:39.182Z,7.50
2024-02-06T17:05:06.789Z,7.50
2024-02-06T17:07:34.046Z,7.50
2024-02-06T17:10:01.644Z,7.50
2024-02-06T17:12:28.894Z,7.40
2024-02-06T17:14:56.344Z,7.40
2024-02-06T17:17:23.737Z,7.40
2024-02-06T17:19:52.327Z,7.30
2024-02-06T17:22:19.843Z,7.30
2024-02-06T17:24:47.044Z,7.20
2024-02-06T17:27:14.098Z,7.20
2024-02-06T17:29:41.209Z,7.20
2024-02-06T17:32:10.164Z,7.20
2024-02-06T17:34:37.946Z,7.20
2024-02-06T17:37:06.973Z,7.20
2024-02-06T17:39:34.247Z,7.20
2024-02-06T17:42:02.657Z,7.10
2024-02-06T17:44:29.739Z,7.10
2024-02-06T17:46:57.089Z,7.10
2024-02-06T17:49:24.722Z,7.10
2024-02-06T17:51:54.872Z,7.10
2024-02-06T17:54:27.033Z,7.10
2024-02-06T17:56:54.074Z,7.10
2024-02-06T17:59:21.476Z,7.10
2024-02-06T18:01:49.333Z,7.10
2024-02-06T18:04:16.745Z,7.10
2024-02-06T18:06:44.412Z,7.10
2024-02-06T18:09:12.199Z,7.00
2024-02-06T18:11:40.678Z,6.90
2024-02-06T18:14:08.748Z,6.80
2024-02-06T18:16:36.009Z,6.80
2024-02-06T18:19:03.359Z,6.70
2024-02-06T18:21:30.344Z,6.70
2024-02-06T18:23:57.712Z,6.70
2024-02-06T18:26:25.765Z,6.60
2024-02-06T18:28:55.370Z,6.50
2024-02-06T18:31:23.532Z,6.50
2024-02-06T18:33:50.737Z,6.50
2024-02-06T18:36:20.365Z,6.50
2024-02-06T18:38:50.157Z,6.40
2024-02-06T18:41:23.060Z,6.40
2024-02-06T18:43:51.073Z,6.40
2024-02-06T18:46:21.183Z,6.40
2024-02-06T18:48:48.341Z,6.30
2024-02-06T18:51:24.593Z,6.20
2024-02-06T18:53:51.899Z,6.20
2024-02-06T18:56:21.116Z,6.10
2024-02-06T18:58:48.240Z,6.10
2024-02-06T19:01:15.681Z,6.10
2024-02-06T19:03:44.683Z,6.00
2024-02-06T19:06:12.630Z,6.10
2024-02-06T19:08:40.084Z,6.10
2024-02-06T19:11:07.391Z,6.00
2024-02-06T19:13:34.546Z,5.90
2024-02-06T19:16:01.766Z,5.90
2024-02-06T19:18:28.873Z,5.80
2024-02-06T19:20:57.852Z,5.80
2024-02-06T19:23:25.195Z,5.80
2024-02-06T19:25:52.841Z,5.80
2024-02-06T19:28:20.432Z,5.70
2024-02-06T19:30:48.016Z,5.70
2024-02-06T19:33:16.483Z,5.80
2024-02-06T19:35:45.140Z,5.80
2024-02-06T19:38:13.771Z,5.80
2024-02-06T19:40:40.908Z,5.80
2024-02-06T19:43:08.189Z,5.90
2024-02-06T19:45:35.616Z,5.90
2024-02-06T19:48:02.912Z,5.90
2024-02-06T19:50:30.155Z,5.90
2024-02-06T19:52:57.603Z,5.80
2024-02-06T19:55:26.638Z,5.80
2024-02-06T19:57:54.044Z,5.70
2024-02-06T20:00:21.465Z,5.70
2024-02-06T20:02:48.648Z,5.80
2024-02-06T20:05:15.853Z,5.70
2024-02-06T20:07:43.141Z,5.70
2024-02-06T20:10:11.008Z,5.70
2024-02-06T20:12:39.542Z,5.60
2024-02-06T20:15:07.416Z,5.60
2024-02-06T20:17:34.419Z,5.60
2024-02-06T20:20:01.738Z,5.50
2024-02-06T20:22:29.129Z,5.60
2024-02-06T20:24:56.225Z,5.60
2024-02-06T20:27:23.644Z,5.60
2024-02-06T20:29:52.352Z,5.50
2024-02-06T20:32:19.279Z,5.60
2024-02-06T20:34:46.600Z,5.60
2024-02-06T20:37:13.921Z,5.60
2024-02-06T20:39:40.926Z,5.50
2024-02-06T20:42:08.335Z,5.50
2024-02-06T20:44:35.524Z,5.40
2024-02-06T20:47:04.487Z,5.40
2024-02-06T20:49:31.585Z,5.40
2024-02-06T20:51:59.041Z,5.40
2024-02-06T20:54:26.167Z,5.40
2024-02-06T20:56:53.473Z,5.40
2024-02-06T20:59:20.640Z,5.40
2024-02-06T21:01:47.632Z,5.40
2024-02-06T21:04:16.293Z,5.40
2024-02-06T21:06:43.342Z,5.40
2024-02-06T21:09:10.626Z,5.40
2024-02-06T21:11:37.853Z,5.40
2024-02-06T21:14:04.764Z,5.40
2024-02-06T21:16:31.988Z,5.40
2024-02-06T21:18:59.343Z,5.50
2024-02-06T21:21:27.716Z,5.40
2024-02-06T21:23:54.902Z,5.40
2024-02-06T21:26:22.363Z,5.40
2024-02-06T21:28:49.497Z,5.40
2024-02-06T21:31:16.839Z,5.40
2024-02-06T21:33:43.880Z,5.40
2024-02-06T21:36:11.773Z,5.40
2024-02-06T21:38:40.859Z,5.30
2024-02-06T21:41:10.562Z,5.40
2024-02-06T21:43:37.880Z,5.40
2024-02-06T21:46:05.325Z,5.40
2024-02-06T21:48:32.683Z,5.40
2024-02-06T21:50:59.698Z,5.30
2024-02-06T21:53:26.704Z,5.40
2024-02-06T21:56:04.639Z,5.30
2024-02-06T21:58:39.117Z,5.30
2024-02-06T22:01:06.369Z,5.30
2024-02-06T22:03:33.633Z,5.40
2024-02-06T22:06:00.842Z,5.30
2024-02-06T22:08:27.859Z,5.40
2024-02-06T22:10:58.228Z,5.30
2024-02-06T22:13:25.331Z,5.30
2024-02-06T22:15:52.641Z,5.30
2024-02-06T22:18:19.667Z,5.30
2024-02-06T22:20:46.784Z,5.30
2024-02-06T22:23:13.984Z,5.20
2024-02-06T22:25:41.346Z,5.30
2024-02-06T22:28:11.016Z,5.40
2024-02-06T22:30:38.678Z,5.50
2024-02-06T22:33:06.476Z,5.40
2024-02-06T22:35:34.052Z,5.40
2024-02-06T22:38:01.158Z,5.40
2024-02-06T22:40:28.106Z,5.40
2024-02-06T22:42:55.360Z,5.40
2024-02-06T22:45:26.061Z,5.40
2024-02-06T22:47:53.140Z,5.40
2024-02-06T22:50:20.216Z,5.50
2024-02-06T22:52:47.656Z,5.50
2024-02-06T22:55:15.205Z,5.50
2024-02-06T22:57:42.402Z,5.50
2024-02-06T23:00:12.482Z,5.50
2024-02-06T23:02:41.406Z,5.60
2024-02-06T23:05:11.391Z,5.60
2024-02-06T23:07:38.639Z,5.60
2024-02-06T23:10:06.198Z,5.60
2024-02-06T23:12:33.196Z,5.60
2024-02-06T23:15:00.591Z,5.60
2024-02-06T23:17:27.607Z,5.60
2024-02-06T23:19:56.175Z,5.60
2024-02-06T23:22:23.171Z,5.60
2024-02-06T23:24:50.202Z,5.50
2024-02-06T23:27:17.447Z,5.50
2024-02-06T23:29:44.682Z,5.50
2024-02-06T23:32:11.874Z,5.40
2024-02-06T23:34:39.201Z,5.30
2024-02-06T23:37:07.874Z,5.30
2024-02-06T23:39:35.101Z,5.20
2024-02-06T23:42:02.288Z,5.20
2024-02-06T23:44:29.434Z,5.20
2024-02-06T23:46:56.424Z,5.20
2024-02-06T23:49:23.759Z,5.20
2024-02-06T23:51:51.386Z,5.10
2024-02-06T23:54:20.219Z,5.10
2024-02-06T23:56:47.465Z,5.10
2024-02-06T23:59:14.419Z,5.10
